Spalding, Nebraska
Current Conditions -  °F | °C
As of 6:55 PM on Friday 28 Nov 2014 (Local Time) from KBVN Reporting Station
Clear Clear  
Wind Chill:   Ceiling: Unl
Heat Index:   Visibility: 10mi
Dew Point: -5°   Wind: 0mph
Humidity: 44%   Direction: NA
Pressure: 29.63"   Gusts: NA
Location:  41.69°N, 98.36°W
Report Text: KBVN 290055Z AUTO 00000KT 10SM CLR 07/M05 A2963 RMK AO2 T00671048
Loading
Personal Weather Stations






























Interactive Weather Map New forecast layout! Learn more

10-Day Weather Forecast

Advertisements
Track Severe Weather on mobile